sensor_id;sensor_type;location;lat;lon;timestamp;P1;durP1;ratioP1;P2;durP2;ratioP2
63714;SDS011;49858;48.956;9.076;2022-11-15T00:00:32;11.65;;;5.95;;
63714;SDS011;49858;48.956;9.076;2022-11-15T00:03:19;12.75;;;6.60;;
63714;SDS011;49858;48.956;9.076;2022-11-15T00:06:08;12.98;;;6.45;;
63714;SDS011;49858;48.956;9.076;2022-11-15T00:08:54;13.40;;;6.30;;
63714;SDS011;49858;48.956;9.076;2022-11-15T00:11:42;12.73;;;6.65;;
63714;SDS011;49858;48.956;9.076;2022-11-15T00:14:28;11.60;;;5.95;;
63714;SDS011;49858;48.956;9.076;2022-11-15T00:17:14;10.73;;;5.80;;
63714;SDS011;49858;48.956;9.076;2022-11-15T00:20:00;10.38;;;6.60;;
63714;SDS011;49858;48.956;9.076;2022-11-15T00:22:46;9.85;;;5.93;;
63714;SDS011;49858;48.956;9.076;2022-11-15T00:25:33;9.50;;;6.07;;
63714;SDS011;49858;48.956;9.076;2022-11-15T00:28:21;11.43;;;5.72;;
63714;SDS011;49858;48.956;9.076;2022-11-15T00:31:08;11.75;;;5.75;;
63714;SDS011;49858;48.956;9.076;2022-11-15T00:33:56;8.10;;;5.15;;
63714;SDS011;49858;48.956;9.076;2022-11-15T00:36:42;10.95;;;6.07;;
63714;SDS011;49858;48.956;9.076;2022-11-15T00:39:28;10.82;;;5.60;;
63714;SDS011;49858;48.956;9.076;2022-11-15T00:42:14;10.23;;;5.78;;
63714;SDS011;49858;48.956;9.076;2022-11-15T00:45:02;9.27;;;5.35;;
63714;SDS011;49858;48.956;9.076;2022-11-15T00:47:48;9.63;;;5.95;;
63714;SDS011;49858;48.956;9.076;2022-11-15T00:50:34;11.65;;;5.53;;
63714;SDS011;49858;48.956;9.076;2022-11-15T00:53:21;11.05;;;6.32;;
63714;SDS011;49858;48.956;9.076;2022-11-15T00:56:07;9.38;;;6.03;;
63714;SDS011;49858;48.956;9.076;2022-11-15T00:58:53;10.75;;;6.35;;
63714;SDS011;49858;48.956;9.076;2022-11-15T01:01:41;11.40;;;5.68;;
63714;SDS011;49858;48.956;9.076;2022-11-15T01:04:27;9.80;;;5.70;;
63714;SDS011;49858;48.956;9.076;2022-11-15T01:07:13;11.23;;;6.10;;
63714;SDS011;49858;48.956;9.076;2022-11-15T01:09:59;12.20;;;5.97;;
63714;SDS011;49858;48.956;9.076;2022-11-15T01:12:46;9.90;;;6.53;;
63714;SDS011;49858;48.956;9.076;2022-11-15T01:15:32;10.40;;;6.25;;
63714;SDS011;49858;48.956;9.076;2022-11-15T01:18:20;14.90;;;7.50;;
63714;SDS011;49858;48.956;9.076;2022-11-15T01:21:07;11.73;;;7.55;;
63714;SDS011;49858;48.956;9.076;2022-11-15T01:23:54;12.05;;;7.30;;
63714;SDS011;49858;48.956;9.076;2022-11-15T01:26:41;14.23;;;9.10;;
63714;SDS011;49858;48.956;9.076;2022-11-15T01:29:27;11.13;;;7.93;;
63714;SDS011;49858;48.956;9.076;2022-11-15T01:32:13;16.33;;;8.32;;
63714;SDS011;49858;48.956;9.076;2022-11-15T01:35:01;14.10;;;8.35;;
63714;SDS011;49858;48.956;9.076;2022-11-15T01:37:47;9.73;;;7.03;;
63714;SDS011;49858;48.956;9.076;2022-11-15T01:40:33;10.63;;;6.95;;
63714;SDS011;49858;48.956;9.076;2022-11-15T01:43:23;10.75;;;6.68;;
63714;SDS011;49858;48.956;9.076;2022-11-15T01:46:17;12.25;;;6.25;;
63714;SDS011;49858;48.956;9.076;2022-11-15T01:49:11;10.10;;;5.95;;
63714;SDS011;49858;48.956;9.076;2022-11-15T01:52:00;9.18;;;6.35;;
63714;SDS011;49858;48.956;9.076;2022-11-15T01:54:50;10.00;;;6.28;;
63714;SDS011;49858;48.956;9.076;2022-11-15T01:57:41;10.30;;;6.10;;
63714;SDS011;49858;48.956;9.076;2022-11-15T02:00:30;9.90;;;5.68;;
63714;SDS011;49858;48.956;9.076;2022-11-15T02:03:17;11.25;;;6.15;;
63714;SDS011;49858;48.956;9.076;2022-11-15T02:06:03;11.30;;;5.93;;
63714;SDS011;49858;48.956;9.076;2022-11-15T02:08:52;11.48;;;6.47;;
63714;SDS011;49858;48.956;9.076;2022-11-15T02:11:40;13.38;;;6.70;;
63714;SDS011;49858;48.956;9.076;2022-11-15T02:14:28;8.50;;;5.97;;
63714;SDS011;49858;48.956;9.076;2022-11-15T02:17:21;14.65;;;7.20;;
63714;SDS011;49858;48.956;9.076;2022-11-15T02:20:27;11.63;;;6.90;;
63714;SDS011;49858;48.956;9.076;2022-11-15T02:26:54;10.10;;;6.15;;
63714;SDS011;49858;48.956;9.076;2022-11-15T02:30:04;11.20;;;5.67;;
63714;SDS011;49858;48.956;9.076;2022-11-15T02:33:12;11.25;;;6.40;;
63714;SDS011;49858;48.956;9.076;2022-11-15T02:36:09;10.88;;;6.45;;
63714;SDS011;49858;48.956;9.076;2022-11-15T02:39:02;12.43;;;7.30;;
63714;SDS011;49858;48.956;9.076;2022-11-15T02:41:54;18.77;;;7.53;;
63714;SDS011;49858;48.956;9.076;2022-11-15T02:44:45;8.63;;;5.93;;
63714;SDS011;49858;48.956;9.076;2022-11-15T02:47:36;13.98;;;6.88;;
63714;SDS011;49858;48.956;9.076;2022-11-15T02:50:29;14.02;;;7.25;;
63714;SDS011;49858;48.956;9.076;2022-11-15T02:53:17;11.43;;;6.72;;
63714;SDS011;49858;48.956;9.076;2022-11-15T02:56:04;11.30;;;7.50;;
63714;SDS011;49858;48.956;9.076;2022-11-15T02:58:58;13.52;;;7.22;;
63714;SDS011;49858;48.956;9.076;2022-11-15T03:04:53;12.88;;;6.55;;
63714;SDS011;49858;48.956;9.076;2022-11-15T03:07:43;10.75;;;5.97;;
63714;SDS011;49858;48.956;9.076;2022-11-15T03:10:39;10.68;;;6.32;;
63714;SDS011;49858;48.956;9.076;2022-11-15T03:13:33;10.80;;;5.60;;
63714;SDS011;49858;48.956;9.076;2022-11-15T03:16:26;13.95;;;6.55;;
63714;SDS011;49858;48.956;9.076;2022-11-15T03:19:17;12.48;;;6.40;;
63714;SDS011;49858;48.956;9.076;2022-11-15T03:22:11;9.63;;;6.20;;
63714;SDS011;49858;48.956;9.076;2022-11-15T03:25:03;9.10;;;5.60;;
63714;SDS011;49858;48.956;9.076;2022-11-15T03:27:52;9.52;;;5.78;;
63714;SDS011;49858;48.956;9.076;2022-11-15T03:30:41;9.48;;;5.28;;
63714;SDS011;49858;48.956;9.076;2022-11-15T03:33:29;9.95;;;5.35;;
63714;SDS011;49858;48.956;9.076;2022-11-15T03:36:17;8.07;;;4.95;;
63714;SDS011;49858;48.956;9.076;2022-11-15T03:39:06;10.07;;;6.03;;
63714;SDS011;49858;48.956;9.076;2022-11-15T03:41:56;11.43;;;5.63;;
63714;SDS011;49858;48.956;9.076;2022-11-15T03:44:51;7.55;;;5.57;;
63714;SDS011;49858;48.956;9.076;2022-11-15T03:47:45;9.27;;;6.25;;
63714;SDS011;49858;48.956;9.076;2022-11-15T03:50:35;11.38;;;5.40;;
63714;SDS011;49858;48.956;9.076;2022-11-15T03:53:22;10.05;;;6.03;;
63714;SDS011;49858;48.956;9.076;2022-11-15T03:56:09;9.70;;;6.00;;
63714;SDS011;49858;48.956;9.076;2022-11-15T03:58:55;12.32;;;6.78;;
63714;SDS011;49858;48.956;9.076;2022-11-15T04:01:42;8.75;;;5.43;;
63714;SDS011;49858;48.956;9.076;2022-11-15T04:04:28;11.73;;;6.13;;
63714;SDS011;49858;48.956;9.076;2022-11-15T04:07:14;10.38;;;6.50;;
63714;SDS011;49858;48.956;9.076;2022-11-15T04:10:00;12.02;;;5.93;;
63714;SDS011;49858;48.956;9.076;2022-11-15T04:12:53;16.00;;;6.85;;
63714;SDS011;49858;48.956;9.076;2022-11-15T04:15:39;10.15;;;6.35;;
63714;SDS011;49858;48.956;9.076;2022-11-15T04:18:31;11.77;;;7.05;;
63714;SDS011;49858;48.956;9.076;2022-11-15T04:21:17;12.38;;;6.25;;
63714;SDS011;49858;48.956;9.076;2022-11-15T04:24:21;12.70;;;6.78;;
63714;SDS011;49858;48.956;9.076;2022-11-15T04:27:08;9.07;;;6.15;;
63714;SDS011;49858;48.956;9.076;2022-11-15T04:29:59;12.57;;;7.07;;
63714;SDS011;49858;48.956;9.076;2022-11-15T04:32:45;14.43;;;7.32;;
63714;SDS011;49858;48.956;9.076;2022-11-15T04:35:31;15.05;;;5.93;;
63714;SDS011;49858;48.956;9.076;2022-11-15T04:38:18;10.45;;;7.15;;
63714;SDS011;49858;48.956;9.076;2022-11-15T04:41:03;11.98;;;6.20;;
63714;SDS011;49858;48.956;9.076;2022-11-15T04:43:50;13.38;;;6.65;;
63714;SDS011;49858;48.956;9.076;2022-11-15T04:46:37;9.73;;;6.15;;
63714;SDS011;49858;48.956;9.076;2022-11-15T04:49:23;11.25;;;7.55;;
63714;SDS011;49858;48.956;9.076;2022-11-15T04:52:09;17.98;;;9.23;;
63714;SDS011;49858;48.956;9.076;2022-11-15T04:54:55;13.98;;;8.18;;
63714;SDS011;49858;48.956;9.076;2022-11-15T04:57:45;10.43;;;7.28;;
63714;SDS011;49858;48.956;9.076;2022-11-15T05:00:32;9.00;;;5.72;;
63714;SDS011;49858;48.956;9.076;2022-11-15T05:03:19;10.13;;;6.25;;
63714;SDS011;49858;48.956;9.076;2022-11-15T05:06:23;10.02;;;5.10;;
63714;SDS011;49858;48.956;9.076;2022-11-15T05:09:09;9.48;;;5.45;;
63714;SDS011;49858;48.956;9.076;2022-11-15T05:11:57;9.93;;;5.18;;
63714;SDS011;49858;48.956;9.076;2022-11-15T05:14:44;8.32;;;5.38;;
63714;SDS011;49858;48.956;9.076;2022-11-15T05:17:30;8.15;;;5.07;;
63714;SDS011;49858;48.956;9.076;2022-11-15T05:20:18;13.20;;;5.18;;
63714;SDS011;49858;48.956;9.076;2022-11-15T05:23:04;9.18;;;6.65;;
63714;SDS011;49858;48.956;9.076;2022-11-15T05:25:51;13.55;;;7.85;;
63714;SDS011;49858;48.956;9.076;2022-11-15T05:28:37;11.40;;;7.72;;
63714;SDS011;49858;48.956;9.076;2022-11-15T05:31:24;12.18;;;7.90;;
63714;SDS011;49858;48.956;9.076;2022-11-15T05:34:14;16.67;;;12.48;;
63714;SDS011;49858;48.956;9.076;2022-11-15T05:37:03;10.82;;;8.68;;
63714;SDS011;49858;48.956;9.076;2022-11-15T05:39:50;11.63;;;7.07;;
63714;SDS011;49858;48.956;9.076;2022-11-15T05:42:36;9.23;;;5.90;;
63714;SDS011;49858;48.956;9.076;2022-11-15T05:45:23;8.80;;;5.38;;
63714;SDS011;49858;48.956;9.076;2022-11-15T05:48:11;8.98;;;5.88;;
63714;SDS011;49858;48.956;9.076;2022-11-15T05:50:58;9.40;;;5.80;;
63714;SDS011;49858;48.956;9.076;2022-11-15T05:53:46;8.30;;;5.80;;
63714;SDS011;49858;48.956;9.076;2022-11-15T05:56:33;8.93;;;5.35;;
63714;SDS011;49858;48.956;9.076;2022-11-15T05:59:20;9.57;;;5.40;;
63714;SDS011;49858;48.956;9.076;2022-11-15T06:02:06;10.68;;;5.85;;
63714;SDS011;49858;48.956;9.076;2022-11-15T06:04:52;11.10;;;5.93;;
63714;SDS011;49858;48.956;9.076;2022-11-15T06:07:38;9.57;;;5.57;;
63714;SDS011;49858;48.956;9.076;2022-11-15T06:10:26;10.05;;;7.07;;
63714;SDS011;49858;48.956;9.076;2022-11-15T06:13:12;19.85;;;15.05;;
63714;SDS011;49858;48.956;9.076;2022-11-15T06:15:58;16.92;;;13.07;;
63714;SDS011;49858;48.956;9.076;2022-11-15T06:18:44;11.20;;;7.13;;
63714;SDS011;49858;48.956;9.076;2022-11-15T06:21:31;10.35;;;6.50;;
63714;SDS011;49858;48.956;9.076;2022-11-15T06:24:17;11.38;;;6.47;;
63714;SDS011;49858;48.956;9.076;2022-11-15T06:27:04;17.42;;;6.30;;
63714;SDS011;49858;48.956;9.076;2022-11-15T06:29:50;10.45;;;6.20;;
63714;SDS011;49858;48.956;9.076;2022-11-15T06:32:36;9.05;;;5.47;;
63714;SDS011;49858;48.956;9.076;2022-11-15T06:35:23;9.60;;;6.05;;
63714;SDS011;49858;48.956;9.076;2022-11-15T06:38:09;10.18;;;5.55;;
63714;SDS011;49858;48.956;9.076;2022-11-15T06:41:00;12.10;;;6.55;;
63714;SDS011;49858;48.956;9.076;2022-11-15T06:43:48;11.88;;;6.38;;
63714;SDS011;49858;48.956;9.076;2022-11-15T06:46:34;9.25;;;6.18;;
63714;SDS011;49858;48.956;9.076;2022-11-15T06:49:21;9.50;;;6.10;;
63714;SDS011;49858;48.956;9.076;2022-11-15T06:52:07;11.00;;;6.65;;
63714;SDS011;49858;48.956;9.076;2022-11-15T06:54:53;10.75;;;6.50;;
63714;SDS011;49858;48.956;9.076;2022-11-15T06:57:45;10.10;;;6.28;;
63714;SDS011;49858;48.956;9.076;2022-11-15T07:00:33;12.30;;;7.10;;
63714;SDS011;49858;48.956;9.076;2022-11-15T07:03:20;14.30;;;10.15;;
63714;SDS011;49858;48.956;9.076;2022-11-15T07:06:06;15.35;;;8.05;;
63714;SDS011;49858;48.956;9.076;2022-11-15T07:08:54;11.90;;;6.97;;
63714;SDS011;49858;48.956;9.076;2022-11-15T07:11:40;10.60;;;6.95;;
63714;SDS011;49858;48.956;9.076;2022-11-15T07:14:26;13.25;;;7.47;;
63714;SDS011;49858;48.956;9.076;2022-11-15T07:17:14;9.93;;;6.80;;
63714;SDS011;49858;48.956;9.076;2022-11-15T07:20:00;11.55;;;6.55;;
63714;SDS011;49858;48.956;9.076;2022-11-15T07:22:46;13.77;;;5.97;;
63714;SDS011;49858;48.956;9.076;2022-11-15T07:25:32;9.60;;;6.00;;
63714;SDS011;49858;48.956;9.076;2022-11-15T07:28:19;13.85;;;7.15;;
63714;SDS011;49858;48.956;9.076;2022-11-15T07:31:06;12.40;;;7.00;;
63714;SDS011;49858;48.956;9.076;2022-11-15T07:33:55;16.90;;;7.15;;
63714;SDS011;49858;48.956;9.076;2022-11-15T07:36:42;10.27;;;7.05;;
63714;SDS011;49858;48.956;9.076;2022-11-15T07:39:28;12.48;;;6.55;;
63714;SDS011;49858;48.956;9.076;2022-11-15T07:42:14;14.38;;;8.70;;
63714;SDS011;49858;48.956;9.076;2022-11-15T07:45:18;12.02;;;6.88;;
63714;SDS011;49858;48.956;9.076;2022-11-15T07:48:05;16.27;;;11.73;;
63714;SDS011;49858;48.956;9.076;2022-11-15T07:50:53;14.23;;;7.85;;
63714;SDS011;49858;48.956;9.076;2022-11-15T07:53:39;15.73;;;6.70;;
63714;SDS011;49858;48.956;9.076;2022-11-15T07:56:26;13.30;;;5.90;;
63714;SDS011;49858;48.956;9.076;2022-11-15T07:59:13;13.23;;;6.13;;
63714;SDS011;49858;48.956;9.076;2022-11-15T08:01:59;11.57;;;7.40;;
63714;SDS011;49858;48.956;9.076;2022-11-15T08:04:46;12.30;;;6.35;;
63714;SDS011;49858;48.956;9.076;2022-11-15T08:07:33;13.15;;;6.88;;
63714;SDS011;49858;48.956;9.076;2022-11-15T08:10:20;8.43;;;6.35;;
63714;SDS011;49858;48.956;9.076;2022-11-15T08:13:07;12.00;;;7.38;;
63714;SDS011;49858;48.956;9.076;2022-11-15T08:15:57;8.32;;;6.05;;
63714;SDS011;49858;48.956;9.076;2022-11-15T08:18:43;10.20;;;5.75;;
63714;SDS011;49858;48.956;9.076;2022-11-15T08:21:30;10.23;;;6.57;;
63714;SDS011;49858;48.956;9.076;2022-11-15T08:24:18;12.55;;;6.75;;
63714;SDS011;49858;48.956;9.076;2022-11-15T08:27:05;12.77;;;6.60;;
63714;SDS011;49858;48.956;9.076;2022-11-15T08:30:00;11.50;;;6.70;;
63714;SDS011;49858;48.956;9.076;2022-11-15T08:32:46;10.27;;;5.80;;
63714;SDS011;49858;48.956;9.076;2022-11-15T08:35:33;8.48;;;5.85;;
63714;SDS011;49858;48.956;9.076;2022-11-15T08:38:19;8.60;;;5.43;;
63714;SDS011;49858;48.956;9.076;2022-11-15T08:41:07;12.90;;;6.07;;
63714;SDS011;49858;48.956;9.076;2022-11-15T08:43:58;12.75;;;5.60;;
63714;SDS011;49858;48.956;9.076;2022-11-15T08:46:45;8.63;;;5.03;;
63714;SDS011;49858;48.956;9.076;2022-11-15T08:49:32;10.07;;;4.85;;
63714;SDS011;49858;48.956;9.076;2022-11-15T08:52:18;11.05;;;6.00;;
63714;SDS011;49858;48.956;9.076;2022-11-15T08:55:05;7.57;;;5.30;;
63714;SDS011;49858;48.956;9.076;2022-11-15T08:57:53;14.15;;;5.80;;
63714;SDS011;49858;48.956;9.076;2022-11-15T09:00:42;10.63;;;5.57;;
63714;SDS011;49858;48.956;9.076;2022-11-15T09:03:28;12.93;;;6.00;;
63714;SDS011;49858;48.956;9.076;2022-11-15T09:06:15;11.43;;;6.07;;
63714;SDS011;49858;48.956;9.076;2022-11-15T09:09:01;9.68;;;5.97;;
63714;SDS011;49858;48.956;9.076;2022-11-15T09:11:48;10.55;;;6.32;;
63714;SDS011;49858;48.956;9.076;2022-11-15T09:14:36;8.82;;;5.80;;
63714;SDS011;49858;48.956;9.076;2022-11-15T09:17:23;13.65;;;6.32;;
63714;SDS011;49858;48.956;9.076;2022-11-15T09:20:09;10.18;;;5.78;;
63714;SDS011;49858;48.956;9.076;2022-11-15T09:22:58;12.77;;;6.20;;
63714;SDS011;49858;48.956;9.076;2022-11-15T09:25:45;10.05;;;6.13;;
63714;SDS011;49858;48.956;9.076;2022-11-15T09:28:32;13.93;;;6.10;;
63714;SDS011;49858;48.956;9.076;2022-11-15T09:31:21;10.43;;;5.80;;
63714;SDS011;49858;48.956;9.076;2022-11-15T09:34:07;10.75;;;6.97;;
63714;SDS011;49858;48.956;9.076;2022-11-15T09:36:53;9.63;;;5.85;;
63714;SDS011;49858;48.956;9.076;2022-11-15T09:39:39;11.10;;;5.65;;
63714;SDS011;49858;48.956;9.076;2022-11-15T09:42:29;15.57;;;5.85;;
63714;SDS011;49858;48.956;9.076;2022-11-15T09:45:31;12.65;;;6.22;;
63714;SDS011;49858;48.956;9.076;2022-11-15T09:48:47;13.90;;;5.75;;
63714;SDS011;49858;48.956;9.076;2022-11-15T09:51:40;11.68;;;5.78;;
63714;SDS011;49858;48.956;9.076;2022-11-15T09:54:16;8.70;;;5.70;;
63714;SDS011;49858;48.956;9.076;2022-11-15T09:57:11;8.85;;;5.65;;
63714;SDS011;49858;48.956;9.076;2022-11-15T09:59:45;10.05;;;5.70;;
63714;SDS011;49858;48.956;9.076;2022-11-15T10:02:34;13.68;;;6.00;;
63714;SDS011;49858;48.956;9.076;2022-11-15T10:05:15;8.18;;;5.55;;
63714;SDS011;49858;48.956;9.076;2022-11-15T10:07:46;10.43;;;6.38;;
63714;SDS011;49858;48.956;9.076;2022-11-15T10:10:25;11.15;;;6.72;;
63714;SDS011;49858;48.956;9.076;2022-11-15T10:12:57;9.10;;;6.05;;
63714;SDS011;49858;48.956;9.076;2022-11-15T10:15:26;10.80;;;5.60;;
63714;SDS011;49858;48.956;9.076;2022-11-15T10:18:05;10.98;;;5.63;;
63714;SDS011;49858;48.956;9.076;2022-11-15T10:20:42;11.80;;;6.07;;
63714;SDS011;49858;48.956;9.076;2022-11-15T10:23:15;10.15;;;6.22;;
63714;SDS011;49858;48.956;9.076;2022-11-15T10:25:45;9.73;;;5.70;;
63714;SDS011;49858;48.956;9.076;2022-11-15T10:28:15;10.30;;;5.75;;
63714;SDS011;49858;48.956;9.076;2022-11-15T10:30:45;8.77;;;5.70;;
63714;SDS011;49858;48.956;9.076;2022-11-15T10:33:18;11.52;;;6.15;;
63714;SDS011;49858;48.956;9.076;2022-11-15T10:38:54;8.65;;;5.55;;
63714;SDS011;49858;48.956;9.076;2022-11-15T10:41:29;12.25;;;7.03;;
63714;SDS011;49858;48.956;9.076;2022-11-15T10:44:09;11.25;;;5.90;;
63714;SDS011;49858;48.956;9.076;2022-11-15T10:46:41;8.68;;;6.00;;
63714;SDS011;49858;48.956;9.076;2022-11-15T10:49:14;8.93;;;5.05;;
63714;SDS011;49858;48.956;9.076;2022-11-15T10:51:45;8.88;;;6.25;;
63714;SDS011;49858;48.956;9.076;2022-11-15T10:54:16;10.27;;;5.45;;
63714;SDS011;49858;48.956;9.076;2022-11-15T10:56:48;8.85;;;5.60;;
63714;SDS011;49858;48.956;9.076;2022-11-15T10:59:23;12.48;;;5.78;;
63714;SDS011;49858;48.956;9.076;2022-11-15T11:02:00;8.38;;;5.95;;
63714;SDS011;49858;48.956;9.076;2022-11-15T11:04:27;9.23;;;5.28;;
63714;SDS011;49858;48.956;9.076;2022-11-15T11:06:57;10.60;;;5.53;;
63714;SDS011;49858;48.956;9.076;2022-11-15T11:09:28;9.30;;;5.45;;
63714;SDS011;49858;48.956;9.076;2022-11-15T11:11:59;10.52;;;5.78;;
63714;SDS011;49858;48.956;9.076;2022-11-15T11:14:28;11.40;;;5.88;;
63714;SDS011;49858;48.956;9.076;2022-11-15T11:17:01;9.20;;;5.85;;
63714;SDS011;49858;48.956;9.076;2022-11-15T11:19:43;11.40;;;5.32;;
63714;SDS011;49858;48.956;9.076;2022-11-15T11:22:25;11.15;;;5.40;;
63714;SDS011;49858;48.956;9.076;2022-11-15T11:25:03;12.55;;;5.97;;
63714;SDS011;49858;48.956;9.076;2022-11-15T11:27:42;11.07;;;6.18;;
63714;SDS011;49858;48.956;9.076;2022-11-15T11:30:16;8.75;;;5.70;;
63714;SDS011;49858;48.956;9.076;2022-11-15T11:35:50;13.13;;;6.05;;
63714;SDS011;49858;48.956;9.076;2022-11-15T11:38:31;11.80;;;5.88;;
63714;SDS011;49858;48.956;9.076;2022-11-15T11:41:08;12.00;;;6.47;;
63714;SDS011;49858;48.956;9.076;2022-11-15T11:43:49;12.15;;;6.22;;
63714;SDS011;49858;48.956;9.076;2022-11-15T11:49:16;15.98;;;6.47;;
63714;SDS011;49858;48.956;9.076;2022-11-15T11:51:50;10.73;;;6.65;;
63714;SDS011;49858;48.956;9.076;2022-11-15T11:54:26;10.40;;;6.72;;
63714;SDS011;49858;48.956;9.076;2022-11-15T11:57:02;10.57;;;6.38;;
63714;SDS011;49858;48.956;9.076;2022-11-15T11:59:36;17.48;;;7.28;;
63714;SDS011;49858;48.956;9.076;2022-11-15T12:02:11;13.95;;;6.22;;
63714;SDS011;49858;48.956;9.076;2022-11-15T12:04:44;13.43;;;6.53;;
63714;SDS011;49858;48.956;9.076;2022-11-15T12:07:19;9.68;;;5.38;;
63714;SDS011;49858;48.956;9.076;2022-11-15T12:09:53;9.13;;;6.38;;
63714;SDS011;49858;48.956;9.076;2022-11-15T12:12:27;8.55;;;6.15;;
63714;SDS011;49858;48.956;9.076;2022-11-15T12:15:02;11.48;;;6.70;;
63714;SDS011;49858;48.956;9.076;2022-11-15T12:17:38;15.15;;;6.70;;
63714;SDS011;49858;48.956;9.076;2022-11-15T12:20:13;14.52;;;6.63;;
63714;SDS011;49858;48.956;9.076;2022-11-15T12:22:45;16.10;;;7.22;;
63714;SDS011;49858;48.956;9.076;2022-11-15T12:25:19;17.05;;;6.97;;
63714;SDS011;49858;48.956;9.076;2022-11-15T12:27:52;12.07;;;8.25;;
63714;SDS011;49858;48.956;9.076;2022-11-15T12:30:23;20.67;;;7.00;;
63714;SDS011;49858;48.956;9.076;2022-11-15T12:32:55;14.70;;;6.78;;
63714;SDS011;49858;48.956;9.076;2022-11-15T12:35:31;10.65;;;6.57;;
63714;SDS011;49858;48.956;9.076;2022-11-15T12:38:02;15.98;;;7.25;;
63714;SDS011;49858;48.956;9.076;2022-11-15T12:40:33;15.88;;;7.03;;
63714;SDS011;49858;48.956;9.076;2022-11-15T12:43:04;11.27;;;6.35;;
63714;SDS011;49858;48.956;9.076;2022-11-15T12:45:53;12.88;;;6.85;;
63714;SDS011;49858;48.956;9.076;2022-11-15T12:57:31;14.23;;;6.63;;
63714;SDS011;49858;48.956;9.076;2022-11-15T13:03:20;13.02;;;6.40;;
63714;SDS011;49858;48.956;9.076;2022-11-15T13:06:33;12.35;;;5.72;;
63714;SDS011;49858;48.956;9.076;2022-11-15T13:12:07;10.43;;;6.07;;
63714;SDS011;49858;48.956;9.076;2022-11-15T13:14:47;18.38;;;6.55;;
63714;SDS011;49858;48.956;9.076;2022-11-15T13:17:24;11.65;;;6.35;;
63714;SDS011;49858;48.956;9.076;2022-11-15T13:19:56;16.33;;;5.95;;
63714;SDS011;49858;48.956;9.076;2022-11-15T13:22:27;9.05;;;5.53;;
63714;SDS011;49858;48.956;9.076;2022-11-15T13:25:16;10.18;;;5.25;;
63714;SDS011;49858;48.956;9.076;2022-11-15T13:27:48;9.82;;;4.35;;
63714;SDS011;49858;48.956;9.076;2022-11-15T13:30:20;10.07;;;4.55;;
63714;SDS011;49858;48.956;9.076;2022-11-15T13:32:55;7.18;;;4.43;;
63714;SDS011;49858;48.956;9.076;2022-11-15T13:35:26;8.48;;;4.13;;
63714;SDS011;49858;48.956;9.076;2022-11-15T13:37:55;8.15;;;4.72;;
63714;SDS011;49858;48.956;9.076;2022-11-15T13:40:25;8.85;;;3.95;;
63714;SDS011;49858;48.956;9.076;2022-11-15T13:42:56;11.07;;;4.43;;
63714;SDS011;49858;48.956;9.076;2022-11-15T13:45:26;5.82;;;3.67;;
63714;SDS011;49858;48.956;9.076;2022-11-15T13:47:54;12.82;;;4.68;;
63714;SDS011;49858;48.956;9.076;2022-11-15T13:50:25;7.15;;;3.80;;
63714;SDS011;49858;48.956;9.076;2022-11-15T13:52:56;11.00;;;4.60;;
63714;SDS011;49858;48.956;9.076;2022-11-15T13:55:29;12.07;;;5.10;;
63714;SDS011;49858;48.956;9.076;2022-11-15T13:58:00;9.57;;;4.40;;
63714;SDS011;49858;48.956;9.076;2022-11-15T14:00:34;7.38;;;3.95;;
63714;SDS011;49858;48.956;9.076;2022-11-15T14:03:05;7.10;;;4.35;;
63714;SDS011;49858;48.956;9.076;2022-11-15T14:05:40;6.03;;;4.03;;
63714;SDS011;49858;48.956;9.076;2022-11-15T14:08:13;5.82;;;3.80;;
63714;SDS011;49858;48.956;9.076;2022-11-15T14:13:34;7.10;;;4.15;;
63714;SDS011;49858;48.956;9.076;2022-11-15T14:16:17;8.15;;;3.95;;
63714;SDS011;49858;48.956;9.076;2022-11-15T14:18:47;7.30;;;3.88;;
63714;SDS011;49858;48.956;9.076;2022-11-15T14:21:16;5.97;;;4.00;;
63714;SDS011;49858;48.956;9.076;2022-11-15T14:23:45;9.80;;;4.45;;
63714;SDS011;49858;48.956;9.076;2022-11-15T14:26:26;7.05;;;4.05;;
63714;SDS011;49858;48.956;9.076;2022-11-15T14:28:55;7.43;;;3.75;;
63714;SDS011;49858;48.956;9.076;2022-11-15T14:31:25;6.13;;;3.72;;
63714;SDS011;49858;48.956;9.076;2022-11-15T14:33:53;9.43;;;4.20;;
63714;SDS011;49858;48.956;9.076;2022-11-15T14:36:20;10.40;;;4.20;;
63714;SDS011;49858;48.956;9.076;2022-11-15T14:38:48;9.90;;;4.80;;
63714;SDS011;49858;48.956;9.076;2022-11-15T14:41:17;6.80;;;3.95;;
63714;SDS011;49858;48.956;9.076;2022-11-15T14:43:47;7.50;;;4.32;;
63714;SDS011;49858;48.956;9.076;2022-11-15T14:46:15;6.93;;;4.05;;
63714;SDS011;49858;48.956;9.076;2022-11-15T14:48:44;12.52;;;4.38;;
63714;SDS011;49858;48.956;9.076;2022-11-15T14:51:13;5.45;;;4.13;;
63714;SDS011;49858;48.956;9.076;2022-11-15T14:53:43;9.70;;;4.50;;
63714;SDS011;49858;48.956;9.076;2022-11-15T14:56:12;9.25;;;4.60;;
63714;SDS011;49858;48.956;9.076;2022-11-15T14:58:40;10.07;;;4.28;;
63714;SDS011;49858;48.956;9.076;2022-11-15T15:01:10;6.30;;;4.15;;
63714;SDS011;49858;48.956;9.076;2022-11-15T15:03:40;8.07;;;4.13;;
63714;SDS011;49858;48.956;9.076;2022-11-15T15:06:11;9.68;;;4.15;;
63714;SDS011;49858;48.956;9.076;2022-11-15T15:08:44;7.32;;;4.18;;
63714;SDS011;49858;48.956;9.076;2022-11-15T15:11:13;7.80;;;3.95;;
63714;SDS011;49858;48.956;9.076;2022-11-15T15:13:49;6.68;;;4.25;;
63714;SDS011;49858;48.956;9.076;2022-11-15T15:16:17;12.18;;;4.45;;
63714;SDS011;49858;48.956;9.076;2022-11-15T15:18:44;7.50;;;4.00;;
63714;SDS011;49858;48.956;9.076;2022-11-15T15:21:16;7.38;;;3.95;;
63714;SDS011;49858;48.956;9.076;2022-11-15T15:23:47;8.05;;;3.83;;
63714;SDS011;49858;48.956;9.076;2022-11-15T15:26:16;10.80;;;3.90;;
63714;SDS011;49858;48.956;9.076;2022-11-15T15:28:44;9.20;;;3.47;;
63714;SDS011;49858;48.956;9.076;2022-11-15T15:31:11;7.50;;;3.55;;
63714;SDS011;49858;48.956;9.076;2022-11-15T15:33:39;7.15;;;4.28;;
63714;SDS011;49858;48.956;9.076;2022-11-15T15:36:08;5.03;;;3.40;;
63714;SDS011;49858;48.956;9.076;2022-11-15T15:38:39;6.88;;;3.63;;
63714;SDS011;49858;48.956;9.076;2022-11-15T15:41:09;6.70;;;3.75;;
63714;SDS011;49858;48.956;9.076;2022-11-15T15:43:37;7.53;;;3.30;;
63714;SDS011;49858;48.956;9.076;2022-11-15T15:46:07;6.93;;;3.38;;
63714;SDS011;49858;48.956;9.076;2022-11-15T15:48:37;10.30;;;4.10;;
63714;SDS011;49858;48.956;9.076;2022-11-15T15:51:05;9.77;;;3.58;;
63714;SDS011;49858;48.956;9.076;2022-11-15T15:53:46;6.75;;;3.33;;
63714;SDS011;49858;48.956;9.076;2022-11-15T15:56:14;8.35;;;3.53;;
63714;SDS011;49858;48.956;9.076;2022-11-15T15:58:42;5.93;;;3.80;;
63714;SDS011;49858;48.956;9.076;2022-11-15T16:01:10;6.18;;;3.15;;
63714;SDS011;49858;48.956;9.076;2022-11-15T16:03:38;7.82;;;3.97;;
63714;SDS011;49858;48.956;9.076;2022-11-15T16:09:03;6.57;;;4.15;;
63714;SDS011;49858;48.956;9.076;2022-11-15T16:11:41;7.97;;;4.32;;
63714;SDS011;49858;48.956;9.076;2022-11-15T16:14:09;7.85;;;4.35;;
63714;SDS011;49858;48.956;9.076;2022-11-15T16:16:37;9.65;;;4.90;;
63714;SDS011;49858;48.956;9.076;2022-11-15T16:19:05;9.38;;;5.18;;
63714;SDS011;49858;48.956;9.076;2022-11-15T16:21:33;8.35;;;4.97;;
63714;SDS011;49858;48.956;9.076;2022-11-15T16:24:02;14.85;;;4.70;;
63714;SDS011;49858;48.956;9.076;2022-11-15T16:26:30;9.30;;;4.53;;
63714;SDS011;49858;48.956;9.076;2022-11-15T16:29:01;10.07;;;4.03;;
63714;SDS011;49858;48.956;9.076;2022-11-15T16:31:29;6.93;;;3.75;;
63714;SDS011;49858;48.956;9.076;2022-11-15T16:33:59;8.32;;;4.38;;
63714;SDS011;49858;48.956;9.076;2022-11-15T16:36:30;6.10;;;3.78;;
63714;SDS011;49858;48.956;9.076;2022-11-15T16:38:59;9.05;;;4.25;;
63714;SDS011;49858;48.956;9.076;2022-11-15T16:41:31;9.18;;;4.80;;